createdAt,value
2019-02-11T00:00:49.438Z,99.90
2019-02-11T00:05:45.279Z,99.90
2019-02-11T00:10:40.996Z,99.90
2019-02-11T00:15:39.428Z,99.90
2019-02-11T00:20:35.095Z,99.90
2019-02-11T00:25:30.912Z,99.90
2019-02-11T00:30:26.648Z,99.90
2019-02-11T00:35:22.405Z,99.90
2019-02-11T00:40:18.271Z,99.90
2019-02-11T00:45:14.132Z,99.90
2019-02-11T00:50:10.583Z,99.90
2019-02-11T00:55:06.484Z,99.90
2019-02-11T01:00:02.251Z,99.90
2019-02-11T01:05:00.524Z,99.90
2019-02-11T01:09:57.832Z,99.90
2019-02-11T01:14:53.779Z,99.90
2019-02-11T01:19:49.485Z,99.90
2019-02-11T01:24:46.535Z,99.90
2019-02-11T01:29:42.370Z,99.90
2019-02-11T01:34:38.162Z,99.90
2019-02-11T01:39:33.864Z,99.90
2019-02-11T01:44:29.732Z,99.90
2019-02-11T01:49:25.466Z,99.90
2019-02-11T01:54:22.531Z,98.60
2019-02-11T01:59:18.320Z,99.10
2019-02-11T02:04:14.259Z,99.90
2019-02-11T02:09:12.214Z,99.40
2019-02-11T02:14:07.929Z,99.90
2019-02-11T02:19:03.811Z,99.90
2019-02-11T02:23:59.702Z,99.90
2019-02-11T02:28:55.424Z,99.90
2019-02-11T02:33:51.379Z,99.90
2019-02-11T02:38:47.610Z,99.90
2019-02-11T02:43:43.337Z,99.90
2019-02-11T02:48:39.165Z,99.90
2019-02-11T02:53:36.634Z,99.90
2019-02-11T02:58:32.814Z,99.90
2019-02-11T03:03:28.504Z,99.90
2019-02-11T03:08:24.200Z,99.90
2019-02-11T03:13:20.032Z,99.90
2019-02-11T03:18:15.727Z,99.90
2019-02-11T03:23:11.433Z,99.90
2019-02-11T03:28:07.157Z,99.90
2019-02-11T03:33:05.430Z,99.90
2019-02-11T03:38:03.018Z,99.90
2019-02-11T03:43:00.581Z,99.90
2019-02-11T03:47:56.298Z,99.90
2019-02-11T03:52:52.227Z,99.90
2019-02-11T03:57:50.186Z,99.90
2019-02-11T04:02:46.030Z,99.90
2019-02-11T04:07:43.984Z,99.90
2019-02-11T04:12:39.673Z,99.90
2019-02-11T04:17:35.857Z,99.90
2019-02-11T04:22:33.920Z,99.90
2019-02-11T04:27:29.796Z,99.90
2019-02-11T04:32:25.535Z,99.90
2019-02-11T04:37:21.281Z,99.90
2019-02-11T04:42:17.038Z,99.90
2019-02-11T04:47:12.836Z,99.90
2019-02-11T04:52:08.629Z,99.90
2019-02-11T04:57:04.452Z,99.90
2019-02-11T05:02:00.300Z,99.90
2019-02-11T05:06:56.081Z,99.90
2019-02-11T05:11:51.940Z,99.90
2019-02-11T05:16:47.805Z,99.90
2019-02-11T05:21:43.525Z,99.90
2019-02-11T05:26:39.266Z,99.90
2019-02-11T05:31:35.029Z,99.90
2019-02-11T05:36:30.821Z,99.90
2019-02-11T05:41:26.514Z,99.90
2019-02-11T05:46:22.320Z,99.90
2019-02-11T05:51:18.120Z,99.90
2019-02-11T05:56:13.808Z,99.90
2019-02-11T06:01:09.571Z,99.90
2019-02-11T06:06:05.254Z,99.90
2019-02-11T06:11:00.975Z,99.90
2019-02-11T06:15:59.093Z,99.90
2019-02-11T06:20:54.808Z,99.90
2019-02-11T06:25:51.713Z,99.90
2019-02-11T06:30:47.391Z,99.90
2019-02-11T06:35:43.291Z,99.90
2019-02-11T06:40:40.221Z,99.90
2019-02-11T06:45:36.201Z,99.90
2019-02-11T06:50:31.884Z,99.90
2019-02-11T06:55:27.863Z,99.90
2019-02-11T07:00:23.596Z,99.90
2019-02-11T07:05:19.389Z,99.90
2019-02-11T07:10:15.211Z,99.90
2019-02-11T07:15:12.181Z,99.90
2019-02-11T07:20:09.643Z,99.90
2019-02-11T07:25:05.672Z,99.90
2019-02-11T07:30:01.529Z,99.90
2019-02-11T07:34:57.387Z,99.90
2019-02-11T07:39:53.094Z,99.90
2019-02-11T07:44:52.909Z,99.90
2019-02-11T07:49:50.026Z,99.90
2019-02-11T07:54:46.023Z,99.90
2019-02-11T07:59:41.750Z,99.90
2019-02-11T08:04:37.661Z,99.90
2019-02-11T08:09:33.401Z,99.90
2019-02-11T08:14:29.279Z,99.90
2019-02-11T08:19:25.120Z,99.90
2019-02-11T08:24:22.633Z,99.90
2019-02-11T08:29:18.561Z,99.90
2019-02-11T08:34:14.200Z,99.90
2019-02-11T08:39:10.856Z,99.90
2019-02-11T08:44:09.537Z,99.90
2019-02-11T08:49:05.305Z,99.90
2019-02-11T08:54:01.273Z,99.90
2019-02-11T08:58:57.044Z,99.90
2019-02-11T09:03:52.813Z,99.90
2019-02-11T09:08:48.561Z,99.90
2019-02-11T09:13:44.528Z,99.90
2019-02-11T09:18:40.274Z,99.90
2019-02-11T09:23:36.097Z,99.90
2019-02-11T09:28:32.044Z,99.90
2019-02-11T09:33:27.865Z,99.90
2019-02-11T09:38:26.739Z,99.90
2019-02-11T09:43:22.533Z,99.90
2019-02-11T09:48:19.214Z,99.90
2019-02-11T09:53:14.982Z,99.90
2019-02-11T09:58:10.700Z,99.90
2019-02-11T10:03:07.219Z,99.90
2019-02-11T10:08:02.929Z,99.90
2019-02-11T10:12:59.161Z,99.90
2019-02-11T10:17:55.305Z,99.90
2019-02-11T10:22:51.040Z,99.90
2019-02-11T10:27:46.984Z,99.90
2019-02-11T10:32:42.728Z,94.50
2019-02-11T10:37:39.515Z,90.80
2019-02-11T10:42:35.248Z,92.00
2019-02-11T10:47:30.961Z,83.60
2019-02-11T10:52:27.152Z,67.30
2019-02-11T10:57:22.832Z,66.10
2019-02-11T11:02:18.566Z,66.70
2019-02-11T11:07:13.486Z,59.40
2019-02-11T11:12:08.176Z,62.50
2019-02-11T11:17:07.581Z,60.20
2019-02-11T11:22:03.337Z,55.80
2019-02-11T11:26:59.277Z,53.80
2019-02-11T11:31:55.108Z,53.30
2019-02-11T11:36:51.013Z,51.70
2019-02-11T11:41:46.766Z,48.30
2019-02-11T11:46:47.034Z,48.90
2019-02-11T11:51:40.683Z,50.60
2019-02-11T11:56:36.573Z,49.10
2019-02-11T12:01:32.286Z,49.90
2019-02-11T12:06:28.153Z,50.60
2019-02-11T12:11:23.855Z,50.40
2019-02-11T12:16:19.563Z,53.90
2019-02-11T12:21:15.456Z,56.30
2019-02-11T12:26:11.174Z,54.40
2019-02-11T12:31:06.939Z,51.40
2019-02-11T12:36:02.796Z,48.50
2019-02-11T12:40:58.512Z,45.60
2019-02-11T12:45:54.650Z,42.40
2019-02-11T12:50:50.382Z,38.30
2019-02-11T12:55:46.062Z,39.10
2019-02-11T13:00:42.878Z,38.70
2019-02-11T13:05:44.904Z,38.90
2019-02-11T13:10:36.167Z,40.10
2019-02-11T13:15:57.922Z,42.20
2019-02-11T13:20:33.354Z,40.80
2019-02-11T13:25:30.239Z,38.90
2019-02-11T13:30:26.360Z,38.70
2019-02-11T13:35:22.247Z,37.80
2019-02-11T13:40:18.066Z,37.80
2019-02-11T13:45:17.042Z,38.40
2019-02-11T13:50:15.615Z,39.90
2019-02-11T13:55:11.631Z,39.20
2019-02-11T14:00:15.204Z,38.20
2019-02-11T14:05:11.185Z,40.50
2019-02-11T14:10:07.594Z,41.80
2019-02-11T14:15:11.988Z,43.30
2019-02-11T14:20:19.812Z,44.90
2019-02-11T14:25:39.254Z,44.70
2019-02-11T14:30:19.646Z,45.30
2019-02-11T14:35:22.293Z,46.30
2019-02-11T14:40:22.102Z,46.00
2019-02-11T14:45:20.979Z,45.40
2019-02-11T14:50:16.869Z,45.90
2019-02-11T14:55:13.060Z,45.60
2019-02-11T15:00:14.059Z,46.00
2019-02-11T15:05:11.084Z,46.00
2019-02-11T15:10:07.502Z,45.70
2019-02-11T15:15:03.245Z,45.70
2019-02-11T15:19:58.987Z,45.90
2019-02-11T15:24:54.870Z,46.40
2019-02-11T15:29:50.587Z,46.50
2019-02-11T15:34:46.426Z,46.50
2019-02-11T15:39:42.158Z,47.20
2019-02-11T15:44:38.006Z,47.60
2019-02-11T15:49:33.771Z,48.40
2019-02-11T15:54:29.522Z,49.20
2019-02-11T15:59:25.231Z,49.30
2019-02-11T16:04:21.040Z,50.10
2019-02-11T16:09:16.836Z,50.50
2019-02-11T16:14:12.698Z,51.00
2019-02-11T16:19:08.510Z,51.20
2019-02-11T16:24:04.423Z,51.30
2019-02-11T16:29:03.370Z,51.20
2019-02-11T16:34:02.520Z,52.80
2019-02-11T16:38:58.904Z,51.30
2019-02-11T16:43:54.699Z,51.00
2019-02-11T16:48:50.406Z,49.90
2019-02-11T16:53:46.192Z,50.00
2019-02-11T16:58:41.982Z,49.30
2019-02-11T17:03:37.635Z,48.60
2019-02-11T17:08:35.757Z,49.20
2019-02-11T17:13:31.795Z,49.50
2019-02-11T17:18:27.696Z,51.00
2019-02-11T17:23:23.634Z,51.20
2019-02-11T17:28:19.334Z,52.40
2019-02-11T17:33:15.023Z,52.40
2019-02-11T17:38:10.747Z,52.90
2019-02-11T17:43:06.576Z,54.30
2019-02-11T17:48:02.706Z,54.50
2019-02-11T17:52:59.793Z,54.30
2019-02-11T17:57:57.374Z,54.70
2019-02-11T18:02:53.280Z,54.90
2019-02-11T18:07:49.080Z,54.20
2019-02-11T18:12:44.833Z,52.80
2019-02-11T18:17:40.705Z,52.90
2019-02-11T18:22:37.016Z,53.30
2019-02-11T18:27:34.540Z,52.40
2019-02-11T18:32:30.395Z,51.40
2019-02-11T18:37:26.274Z,50.90
2019-02-11T18:42:23.384Z,52.40
2019-02-11T18:47:19.137Z,52.70
2019-02-11T18:52:15.106Z,51.50
2019-02-11T18:57:11.287Z,52.00
2019-02-11T19:02:07.120Z,50.40
2019-02-11T19:07:02.936Z,50.30
2019-02-11T19:11:59.714Z,49.80
2019-02-11T19:16:57.235Z,48.70
2019-02-11T19:21:55.235Z,48.10
2019-02-11T19:26:51.076Z,48.00
2019-02-11T19:31:46.818Z,48.30
2019-02-11T19:36:43.305Z,48.90
2019-02-11T19:41:43.077Z,48.90
2019-02-11T19:46:39.254Z,48.90
2019-02-11T19:51:36.034Z,49.50
2019-02-11T19:56:34.730Z,49.30
2019-02-11T20:01:30.921Z,49.70
2019-02-11T20:06:27.935Z,50.30
2019-02-11T20:11:23.692Z,51.10
2019-02-11T20:16:19.476Z,50.70
2019-02-11T20:21:17.285Z,51.60
2019-02-11T20:26:15.413Z,51.60
2019-02-11T20:31:11.339Z,52.60
2019-02-11T20:36:14.709Z,53.10
2019-02-11T20:41:10.717Z,53.40
2019-02-11T20:46:07.210Z,53.30
2019-02-11T20:51:04.156Z,54.10
2019-02-11T20:56:00.053Z,53.30
2019-02-11T21:00:56.224Z,53.70
2019-02-11T21:05:52.109Z,53.90
2019-02-11T21:10:47.883Z,54.90
2019-02-11T21:15:43.761Z,54.50
2019-02-11T21:20:40.191Z,54.50
2019-02-11T21:25:36.031Z,55.30
2019-02-11T21:30:31.710Z,55.30
2019-02-11T21:35:27.614Z,55.90
2019-02-11T21:40:23.386Z,56.90
2019-02-11T21:45:19.305Z,57.80
2019-02-11T21:50:15.623Z,57.30
2019-02-11T21:55:12.632Z,57.40
2019-02-11T22:00:10.873Z,58.50
2019-02-11T22:05:07.113Z,59.80
2019-02-11T22:10:02.874Z,61.80
2019-02-11T22:14:58.689Z,64.00
2019-02-11T22:19:54.427Z,64.00
2019-02-11T22:24:50.343Z,65.20
2019-02-11T22:29:46.109Z,66.70
2019-02-11T22:34:41.906Z,67.30
2019-02-11T22:39:37.566Z,68.20
2019-02-11T22:44:33.367Z,68.20
2019-02-11T22:49:29.136Z,64.30
2019-02-11T22:54:24.957Z,63.40
2019-02-11T22:59:20.716Z,62.80
2019-02-11T23:04:16.556Z,62.70
2019-02-11T23:09:13.461Z,64.10
2019-02-11T23:14:09.238Z,64.40
2019-02-11T23:19:05.275Z,63.60
2019-02-11T23:24:01.133Z,63.10
2019-02-11T23:28:56.985Z,63.00
2019-02-11T23:33:52.777Z,62.20
2019-02-11T23:38:48.502Z,63.60
2019-02-11T23:43:45.492Z,66.30
2019-02-11T23:48:41.964Z,65.90
2019-02-11T23:53:37.822Z,65.80
2019-02-11T23:58:33.918Z,65.10
